F/V Adeline Stephen — FGUF — position and weather

sailwx.info

Track history (hours):
 
Tides and Currents Weather Stations Pressure Air Temp Water Temp Dewpoint Dewpoint Depression Visibility Wind Speed Wind Dir Waves Ship Positions

F/V Adeline Stephen

Last reported at 2017-Apr-29 06:41 UTC. Time now 2017-Apr-30 09:07 UTC.
Position N 47°36' W 003°43'.

Length 18 m.

Type: Fishing. MMSI: 228929000.

Date/timePositionNaut miles runAvg speedWind from/ knotsBaromVisibWave heightAir tempDewpointWater temp
2017-Apr-29 06:41N 47°36' W 003°43'2 8.6
2017-Apr-29 06:31N 47°37' W 003°41'4 8.6
2017-Apr-29 06:01N 47°39' W 003°35'4 8.7
2017-Apr-29 05:31N 47°40' W 003°29'4 8.7
2017-Apr-29 05:01N 47°42' W 003°23'2 4.0
2017-Apr-29 04:30N 47°44' W 003°22'0 0.0
2017-Apr-29 04:01N 47°44' W 003°22'0 0.1
2017-Apr-29 03:31N 47°44' W 003°22'0 0.0
2017-Apr-29 03:00N 47°44' W 003°22'0 0.0
2017-Apr-29 02:31N 47°44' W 003°22'0 0.0
2017-Apr-29 02:01N 47°44' W 003°22'0 0.0
2017-Apr-29 01:31N 47°44' W 003°22'0 0.0
2017-Apr-29 01:01N 47°44' W 003°22'0 0.0
2017-Apr-29 00:31N 47°44' W 003°22'0 0.0
2017-Apr-29 00:00N 47°44' W 003°22'0 0.0
2017-Apr-28 23:31N 47°44' W 003°22'0 0.1
2017-Apr-28 23:01N 47°44' W 003°22'4 7.2
2017-Apr-28 22:30N 47°41' W 003°25'4 8.6
2017-Apr-28 22:00N 47°40' W 003°31'  
2017-Apr-25 12:43N 47°39' W 003°38'2 8.6
2017-Apr-25 12:30N 47°40' W 003°36'4 8.5
2017-Apr-25 12:00N 47°40' W 003°29'4 8.1
2017-Apr-25 11:30N 47°41' W 003°24'3 5.4
2017-Apr-25 11:00N 47°44' W 003°22'0 0.0
2017-Apr-25 10:30N 47°44' W 003°22'0 0.0
2017-Apr-25 10:00N 47°44' W 003°22'0 0.0
2017-Apr-25 09:30N 47°44' W 003°22'0 0.0
2017-Apr-25 09:00N 47°44' W 003°22'  
2017-Apr-21 10:05N 47°44' W 003°22'0 0.0
2017-Apr-21 10:00N 47°44' W 003°22'0 0.0
2017-Apr-21 09:30N 47°44' W 003°22'0 0.0
2017-Apr-21 09:00N 47°44' W 003°22'0 0.0
2017-Apr-21 08:30N 47°44' W 003°22'0 0.1
2017-Apr-21 08:00N 47°44' W 003°22'0 0.1
2017-Apr-21 07:30N 47°44' W 003°22'0 0.0
2017-Apr-21 07:00N 47°44' W 003°22'0 0.0
2017-Apr-21 06:30N 47°44' W 003°22'0 0.0
2017-Apr-21 06:00N 47°44' W 003°22'0 0.0
2017-Apr-21 05:30N 47°44' W 003°22'0 0.0
2017-Apr-21 05:00N 47°44' W 003°22'0 0.0
2017-Apr-21 04:30N 47°44' W 003°22'0 0.1
2017-Apr-21 04:00N 47°44' W 003°22'3 6.6
2017-Apr-21 03:30N 47°41' W 003°25'4 7.8
2017-Apr-21 03:00N 47°40' W 003°30'  
Track history (hours):
 
Tides and Currents Weather Stations Pressure Air Temp Water Temp Dewpoint Dewpoint Depression Visibility Wind Speed Wind Dir Waves Ship Positions

F/V Adeline Stephen

Last reported at 2017-Apr-29 06:41 UTC. Time now 2017-Apr-30 09:07 UTC.
Position N 47°36' W 003°43'.

Length 18 m.

Type: Fishing. MMSI: 228929000.

Date/timePositionNaut miles runAvg speedWind from/ knotsBaromVisibWave heightAir tempDewpointWater temp
2017-Apr-29 06:41N 47°36' W 003°43'2 8.6
2017-Apr-29 06:31N 47°37' W 003°41'4 8.6
2017-Apr-29 06:01N 47°39' W 003°35'4 8.7
2017-Apr-29 05:31N 47°40' W 003°29'4 8.7
2017-Apr-29 05:01N 47°42' W 003°23'2 4.0
2017-Apr-29 04:30N 47°44' W 003°22'0 0.0
2017-Apr-29 04:01N 47°44' W 003°22'0 0.1
2017-Apr-29 03:31N 47°44' W 003°22'0 0.0
2017-Apr-29 03:00N 47°44' W 003°22'0 0.0
2017-Apr-29 02:31N 47°44' W 003°22'0 0.0
2017-Apr-29 02:01N 47°44' W 003°22'0 0.0
2017-Apr-29 01:31N 47°44' W 003°22'0 0.0
2017-Apr-29 01:01N 47°44' W 003°22'0 0.0
2017-Apr-29 00:31N 47°44' W 003°22'0 0.0
2017-Apr-29 00:00N 47°44' W 003°22'0 0.0
2017-Apr-28 23:31N 47°44' W 003°22'0 0.1
2017-Apr-28 23:01N 47°44' W 003°22'4 7.2
2017-Apr-28 22:30N 47°41' W 003°25'4 8.6
2017-Apr-28 22:00N 47°40' W 003°31'  
2017-Apr-25 12:43N 47°39' W 003°38'2 8.6
2017-Apr-25 12:30N 47°40' W 003°36'4 8.5
2017-Apr-25 12:00N 47°40' W 003°29'4 8.1
2017-Apr-25 11:30N 47°41' W 003°24'3 5.4
2017-Apr-25 11:00N 47°44' W 003°22'0 0.0
2017-Apr-25 10:30N 47°44' W 003°22'0 0.0
2017-Apr-25 10:00N 47°44' W 003°22'0 0.0
2017-Apr-25 09:30N 47°44' W 003°22'0 0.0
2017-Apr-25 09:00N 47°44' W 003°22'  
2017-Apr-21 10:05N 47°44' W 003°22'0 0.0
2017-Apr-21 10:00N 47°44' W 003°22'0 0.0
2017-Apr-21 09:30N 47°44' W 003°22'0 0.0
2017-Apr-21 09:00N 47°44' W 003°22'0 0.0
2017-Apr-21 08:30N 47°44' W 003°22'0 0.1
2017-Apr-21 08:00N 47°44' W 003°22'0 0.1
2017-Apr-21 07:30N 47°44' W 003°22'0 0.0
2017-Apr-21 07:00N 47°44' W 003°22'0 0.0
2017-Apr-21 06:30N 47°44' W 003°22'0 0.0
2017-Apr-21 06:00N 47°44' W 003°22'0 0.0
2017-Apr-21 05:30N 47°44' W 003°22'0 0.0
2017-Apr-21 05:00N 47°44' W 003°22'0 0.0
2017-Apr-21 04:30N 47°44' W 003°22'0 0.1
2017-Apr-21 04:00N 47°44' W 003°22'3 6.6
2017-Apr-21 03:30N 47°41' W 003°25'4 7.8
2017-Apr-21 03:00N 47°40' W 003°30'  

Dump ship's entire track history